Terminal Aerodrome Forecast
Issued by NWS Milwaukee/Sullivan, WI

Home | Current Version | Previous Version | Text Only | Print | Product List | Glossary On
Versions: 1 2 3 4 5 6 7 8 9 10 11 12 13 14 15 16 17 18 19 20 21 22 23 24 25 26 27 28 29 30 31 32 33 34 35 36 37 38 39 40 41 42 43 44 45 46 47 48 49
000
FTUS43 KMKX 020520
TAFMSN
TAF
KMSN 020520Z 0206/0306 19003KT P6SM SCT080 BKN250
     FM020700 19003KT 5SM BR SCT120 BKN250
      TEMPO 0208/0212 3SM BR SCT080 BKN200
     FM021300 24004KT P6SM SCT090 SCT250
     FM021900 21008KT P6SM SCT035 BKN120
     FM030200 18004KT P6SM VCTS SCT040CB BKN080
      TEMPO 0303/0306 5SM TSRA BKN040CB=

USA.gov is the U.S. government's official web portal to all federal, state and local government web resources and services.